Portada
METAR-TAF:

METAR-TAF

Aeroports :

Nouméa La Tontouta, Nova Caledònia

latitud: 22-01S, longitud: 166-13E, altitud: 16 m

Observació

L'informe es va fer fa 32 minuts, a les 18:30 UTC
Vent 2 kt amb direcció variable
Temperatura 20°C
Humitat 78%
Pressió 1012 hPa
Visibilitat 10 km o més
sense núvols per sota de 1500 mi sense presència de cumulonimbus.

METAR: NWWW 141830Z AUTO VRB02KT CAVOK 20/16 Q1012 NOSIG

Hora: 06:02 (19:02 UTC)

Pronòstic

L'informe es va fer fa 2 hores i 2 minuts, a les 17:00 UTC
Pronòstic vàlid del 14 a les 18 UTC al 15 a les 18 UTC
Vent 5 kt del Nord/Nord-Est
Visibilitat 10 km o més
Núvols disperses a una alçada de 5500 ft
Evolucionant progressivament
l' 14 a les 23 UTC al 15 a les 01 UTC
Vent 12 kt del Sud

TAF: NWWW 141700Z 1418/1518 02005KT 9999 SCT055 BECMG 1423/1501 18012KT

Observacions i pronòstics meteorològics de més de 4000 aeroports (METAR i TAF).

Les estacions disponibles són els punts grocs i vermells al mapa.

Posi el ratolí al punt desitjat per veure el nom de l'estació.

Feu clic per veure les observacions i els pronòstics meteorològics.

Per canviar el mapa: feu clic els botons verds amb una creu de color negre per apropar; al botó verd amb un guió per allunyar la imatge; o en les fletxes verdes per a mapes adjacents.


METAR-TAF: